Terminal Aerodrome Forecast
Issued by NWS Louisville, KY

Home | Current Version | Previous Version | Text Only | Print | Product List | Glossary On
Versions: 1 2 3 4 5 6 7 8 9 10 11 12 13 14
833
FTUS43 KLMK 110520
TAFSDF
TAF
KSDF 110520Z 1106/1212 27007KT P6SM SCT050 SCT250
     FM111100 32004KT P6SM BKN050
     FM111800 34004KT P6SM SCT250=

USA.gov is the U.S. government's official web portal to all federal, state and local government web resources and services.